< < Back
Terminal Aerodrome Forecast


Current Version              Previous Versions:   1  2  3  4  5  6  7  8  9  

Terminal Aerodrome Forecast

248
FTUS42 KJAX 282323
TAFGNV
TAF
KGNV 282323Z 2900/2924 05005KT P6SM SCT025
     FM291400 07012G18KT P6SM VCSH SCT020 BKN035=

Latest METAR

176
SAUS70 KWBC 290000
MTRGNV
METAR KGNV 282353Z 07007KT 10SM CLR 29/21 A2997 RMK AO2 SLP146 60005
T02890211 10344 20272 53007


USA.gov is the U.S. government's official web portal to all federal, state and local government web resources and services.